Time;durP1;ratioP1;P1;durP2;ratioP2;P2;SDS_P1;SDS_P2;PMS_P1;PMS_P2;Temp;Humidity;BMP_temperature;BMP_pressure;BME280_temperature;BME280_humidity;BME280_pressure;Samples;Min_cycle;Max_cycle;Signal;HPM_P1;HPM_P2
2021/12/30 00:01:17;;;;;;;17.75;13.15;;;;;;;-0.86;94.61;100359.03;5031915;28;20029;-73
2021/12/30 00:03:43;;;;;;;18.17;12.48;;;;;;;-0.72;94.86;100365.69;5030281;28;20061;-75
2021/12/30 00:06:12;;;;;;;14.95;10.50;;;;;;;-0.48;94.79;100385.63;5028675;28;20126;-72
2021/12/30 00:10:56;;;;;;;15.57;10.77;;;;;;;-0.79;94.43;100363.66;5045618;28;20675;-73
2021/12/30 00:13:22;;;;;;;17.88;11.00;;;;;;;-0.77;94.57;100368.84;5022659;28;20592;-74
2021/12/30 00:15:48;;;;;;;14.32;10.85;;;;;;;-0.82;94.63;100368.69;5054942;28;20536;-74
2021/12/30 00:18:14;;;;;;;16.90;11.48;;;;;;;-0.60;94.85;100379.94;5024816;28;20037;-73
2021/12/30 00:26:23;;;;;;;14.10;8.80;;;;;;;-0.62;94.33;100422.78;5078639;28;20048;-75
2021/12/30 00:28:53;;;;;;;17.00;11.20;;;;;;;-0.64;94.54;100417.53;5088470;28;20032;-74
2021/12/30 00:31:19;;;;;;;14.52;11.50;;;;;;;-0.67;94.52;100409.69;5074590;28;20443;-77
2021/12/30 00:33:44;;;;;;;16.17;10.02;;;;;;;-0.77;94.73;100408.41;5090882;28;20060;-74
2021/12/30 00:39:31;;;;;;;15.80;10.50;;;;;;;-0.61;94.72;100396.19;5096049;28;20150;-74
2021/12/30 00:45:21;;;;;;;14.00;10.82;;;;;;;-0.58;94.35;100399.78;5094068;28;20035;-73
2021/12/30 00:47:47;;;;;;;13.52;9.80;;;;;;;-0.71;94.35;100385.47;5043081;28;20033;-73
2021/12/30 00:50:14;;;;;;;14.27;10.70;;;;;;;-0.48;94.51;100437.16;5069722;28;20104;-73
2021/12/30 00:56:26;;;;;;;15.93;12.15;;;;;;;-0.58;94.78;100422.09;5051543;28;20102;-72
2021/12/30 01:02:15;;;;;;;21.55;10.00;;;;;;;-0.51;94.41;100431.88;5051416;28;20036;-74
2021/12/30 01:04:42;;;;;;;18.40;11.77;;;;;;;-0.46;94.36;100433.84;5049212;28;20029;-74
2021/12/30 01:07:07;;;;;;;16.55;11.85;;;;;;;-0.33;94.34;100431.78;5050269;28;20467;-74
2021/12/30 01:09:33;;;;;;;14.35;11.52;;;;;;;-0.57;94.09;100414.44;5033107;28;20068;-73
2021/12/30 01:15:32;;;;;;;15.65;11.30;;;;;;;-0.81;94.34;100403.91;5052337;28;20049;-73
2021/12/30 01:21:21;;;;;;;15.23;11.50;;;;;;;-0.63;94.36;100414.16;5051694;28;20055;-75
2021/12/30 01:23:47;;;;;;;17.02;10.13;;;;;;;-0.46;94.58;100439.00;5051902;28;20048;-76
2021/12/30 01:26:16;;;;;;;14.98;10.88;;;;;;;-0.40;94.31;100427.19;5047876;28;20037;-75
2021/12/30 01:28:42;;;;;;;16.58;12.27;;;;;;;-0.31;93.97;100425.00;5050756;28;20021;-75
2021/12/30 01:34:31;;;;;;;15.10;11.80;;;;;;;-0.43;94.26;100418.50;5049901;28;20041;-74
2021/12/30 01:37:00;;;;;;;15.25;12.10;;;;;;;-0.61;94.07;100406.50;5047752;28;20041;-75
2021/12/30 01:39:27;;;;;;;13.27;11.40;;;;;;;-0.50;94.13;100407.84;5049581;28;20052;-75
2021/12/30 01:45:15;;;;;;;16.13;11.30;;;;;;;-0.44;94.16;100411.59;5051554;28;20044;-74
2021/12/30 01:47:51;;;;;;;18.83;13.13;;;;;;;-0.35;93.98;100402.47;5049398;28;20041;-74
2021/12/30 01:50:23;;;;;;;14.20;10.43;;;;;;;-0.58;93.60;100399.78;5051262;28;20079;-74
2021/12/30 01:56:21;;;;;;;15.25;11.70;;;;;;;-0.53;94.39;100433.50;5051148;28;20120;-74
2021/12/30 02:02:08;;;;;;;15.82;11.13;;;;;;;-0.39;94.05;100424.69;5048813;28;20040;-74
2021/12/30 02:04:34;;;;;;;18.35;13.18;;;;;;;-0.55;94.01;100417.09;5019418;28;20034;-75
2021/12/30 02:06:59;;;;;;;19.30;12.07;;;;;;;-0.64;94.06;100410.69;5033103;28;20484;-74
2021/12/30 02:09:30;;;;;;;17.58;12.18;;;;;;;-0.52;94.44;100433.53;5036604;28;20025;-73
2021/12/30 02:15:18;;;;;;;14.23;11.40;;;;;;;-0.74;94.34;100415.38;5037074;28;20040;-74
2021/12/30 02:17:48;;;;;;;15.45;12.07;;;;;;;-0.47;94.72;100446.63;5036605;28;20037;-75
2021/12/30 02:20:47;;;;;;;16.20;12.68;;;;;;;-0.58;94.57;100416.97;5034959;28;20064;-74
2021/12/30 02:23:25;;;;;;;16.30;12.75;;;;;;;-0.61;94.72;100416.78;5036773;28;20038;-75
2021/12/30 02:25:57;;;;;;;17.85;11.55;;;;;;;-0.43;94.64;100435.66;5033514;28;20037;-75
2021/12/30 02:31:44;;;;;;;15.98;12.65;;;;;;;-0.64;94.73;100431.31;5036598;28;20044;-74
2021/12/30 02:34:10;;;;;;;15.75;12.05;;;;;;;-0.58;94.50;100440.16;5036244;28;20045;-75
2021/12/30 02:36:37;;;;;;;16.50;12.38;;;;;;;-0.40;94.70;100463.25;5035768;28;20040;-74
2021/12/30 02:39:07;;;;;;;18.45;12.75;;;;;;;-0.38;94.86;100471.94;5036241;28;20046;-74
2021/12/30 02:41:37;;;;;;;17.52;13.43;;;;;;;-0.60;94.63;100463.25;5035766;28;20039;-75
2021/12/30 02:44:06;;;;;;;15.70;13.00;;;;;;;-0.76;94.77;100450.50;5035699;28;20033;-73
2021/12/30 02:46:37;;;;;;;20.33;12.32;;;;;;;-0.65;94.64;100463.03;5033390;28;20036;-74
2021/12/30 02:52:39;;;;;;;17.40;12.95;;;;;;;-0.30;95.20;100493.81;5018217;28;20060;-74
2021/12/30 02:55:05;;;;;;;16.88;14.40;;;;;;;-0.55;94.89;100463.47;5018470;28;20038;-75
2021/12/30 02:57:31;;;;;;;17.70;14.25;;;;;;;-0.62;95.27;100466.59;5036682;28;20038;-74
2021/12/30 02:59:56;;;;;;;19.17;13.88;;;;;;;-0.52;95.05;100458.44;5035560;28;20083;-75
2021/12/30 03:02:22;;;;;;;19.70;13.13;;;;;;;-0.52;95.10;100458.44;5033269;28;20034;-75
2021/12/30 03:04:48;;;;;;;19.52;13.55;;;;;;;-0.47;94.98;100487.88;5035642;28;20496;-75
2021/12/30 03:07:18;;;;;;;16.55;11.93;;;;;;;-0.35;94.97;100490.13;5035891;28;20032;-74
2021/12/30 03:09:47;;;;;;;15.38;12.23;;;;;;;-0.74;95.21;100461.75;5040457;28;20053;-73
2021/12/30 03:12:13;;;;;;;17.10;12.27;;;;;;;-0.39;95.26;100507.16;5017214;28;20029;-74
2021/12/30 03:14:42;;;;;;;14.93;11.63;;;;;;;-0.65;95.16;100483.66;5033893;28;20076;-74
2021/12/30 03:17:08;;;;;;;15.80;12.18;;;;;;;-0.74;95.43;100464.31;5034739;28;20376;-74
2021/12/30 03:19:39;;;;;;;15.65;12.23;;;;;;;-0.64;95.33;100485.41;5035552;28;20029;-73
2021/12/30 03:22:04;;;;;;;15.77;12.02;;;;;;;-0.69;95.63;100479.16;5033169;28;20049;-73
2021/12/30 03:24:30;;;;;;;15.05;10.50;;;;;;;-0.62;95.21;100510.38;5033669;28;20037;-74
2021/12/30 03:26:58;;;;;;;15.85;10.88;;;;;;;-0.47;95.55;100504.25;5034069;28;20041;-74
2021/12/30 03:29:24;;;;;;;15.20;11.48;;;;;;;-0.75;95.65;100475.41;5035538;28;20030;-73
2021/12/30 03:31:50;;;;;;;16.33;12.75;;;;;;;-0.50;95.80;100493.78;5033792;28;20037;-74
2021/12/30 03:34:15;;;;;;;16.10;11.63;;;;;;;-0.58;95.57;100508.03;5035011;28;20475;-73
2021/12/30 03:36:41;;;;;;;17.02;11.95;;;;;;;-0.62;95.50;100490.66;5033739;28;20040;-73
2021/12/30 03:42:28;;;;;;;16.55;13.48;;;;;;;-0.59;95.79;100502.78;5034202;28;20048;-74
2021/12/30 03:44:56;;;;;;;21.80;13.07;;;;;;;-0.48;95.75;100520.50;5034748;28;20033;-74
2021/12/30 03:47:22;;;;;;;15.82;11.90;;;;;;;-0.48;95.63;100530.81;5033841;28;20033;-74
2021/12/30 03:49:48;;;;;;;16.83;12.57;;;;;;;-0.41;95.66;100528.53;5034415;28;20033;-75
2021/12/30 03:55:36;;;;;;;13.10;9.52;;;;;;;-0.55;95.73;100539.06;5033307;28;20083;-73
2021/12/30 03:58:04;;;;;;;12.68;9.93;;;;;;;-0.51;95.37;100542.69;5034644;28;20029;-73
2021/12/30 04:00:33;;;;;;;14.68;10.88;;;;;;;-0.70;95.28;100510.91;5033586;28;20030;-73
2021/12/30 04:02:58;;;;;;;15.10;10.75;;;;;;;-0.77;95.37;100529.47;5032975;28;20036;-73
2021/12/30 04:05:25;;;;;;;11.93;8.32;;;;;;;-0.83;95.48;100528.28;5033581;28;20029;-74
2021/12/30 04:07:54;;;;;;;15.65;11.23;;;;;;;-0.66;95.66;100538.59;5033149;28;20025;-74
2021/12/30 04:10:24;;;;;;;16.02;11.63;;;;;;;-0.71;95.72;100545.19;5033272;28;20025;-72
2021/12/30 04:12:51;;;;;;;15.02;11.13;;;;;;;-0.79;95.75;100540.50;5033167;28;20473;-73
2021/12/30 04:15:17;;;;;;;17.52;11.68;;;;;;;-0.74;96.00;100549.34;5033369;28;20029;-72
2021/12/30 04:17:43;;;;;;;16.80;11.82;;;;;;;-0.74;95.96;100557.06;5033345;28;20025;-72
2021/12/30 04:31:19;;;;;;;15.77;12.07;;;;;;;-0.60;95.85;100568.03;5111902;28;20104;-72
2021/12/30 04:33:45;;;;;;;17.35;11.52;;;;;;;-0.39;95.66;100583.63;5110995;27;20040;-73
2021/12/30 04:36:10;;;;;;;11.63;10.32;;;;;;;-0.32;95.79;100607.16;5109278;27;20031;-72
2021/12/30 04:38:39;;;;;;;12.73;9.77;;;;;;;-0.45;95.28;100590.22;5109822;28;20031;-72
2021/12/30 04:41:06;;;;;;;13.00;10.30;;;;;;;-0.43;95.46;100592.88;5110482;27;20028;-73
2021/12/30 04:43:31;;;;;;;13.55;9.65;;;;;;;-0.37;95.24;100615.50;5111251;28;20043;-72
2021/12/30 04:49:19;;;;;;;11.93;9.57;;;;;;;-0.29;94.74;100617.63;5113475;28;20038;-73
2021/12/30 04:53:16;;;;;;;11.55;9.90;;;;;;;-0.32;94.43;100634.66;5075422;27;2025230;-73
2021/12/30 04:55:42;;;;;;;13.57;8.73;;;;;;;-0.19;94.48;100646.41;5113374;28;20077;-73
2021/12/30 04:58:08;;;;;;;12.00;8.55;;;;;;;-0.17;94.30;100637.06;5112198;28;20039;-73
2021/12/30 05:00:37;;;;;;;13.77;9.30;;;;;;;-0.29;94.40;100627.94;5111789;28;20487;-73
2021/12/30 05:08:59;;;;;;;10.63;8.57;;;;;;;-0.40;93.75;100646.28;5097345;28;20391;-73
2021/12/30 05:11:25;;;;;;;11.15;9.20;;;;;;;-0.30;93.82;100646.81;5109401;28;20119;-74
2021/12/30 05:13:51;;;;;;;12.80;9.02;;;;;;;-0.27;94.17;100664.97;5111368;28;20024;-74
2021/12/30 05:16:20;;;;;;;15.63;9.02;;;;;;;-0.52;94.12;100638.84;5111482;28;20024;-71
2021/12/30 05:18:46;;;;;;;10.90;7.38;;;;;;;-0.55;94.31;100642.16;5094148;28;20420;-72
2021/12/30 05:21:12;;;;;;;16.67;8.07;;;;;;;-0.58;94.38;100651.44;5090116;28;20075;-72
2021/12/30 05:23:38;;;;;;;11.98;8.65;;;;;;;-0.38;94.63;100683.31;5089233;28;20064;-74
2021/12/30 05:29:31;;;;;;;12.88;8.07;;;;;;;-0.49;94.56;100664.78;5091189;28;20070;-73
2021/12/30 05:31:56;;;;;;;12.30;8.85;;;;;;;-0.50;94.71;100656.16;5089959;28;20023;-71
2021/12/30 05:34:22;;;;;;;12.38;8.88;;;;;;;-0.45;94.66;100656.38;5090783;28;20012;-73
2021/12/30 05:40:16;;;;;;;10.82;8.15;;;;;;;-0.42;94.74;100648.81;5091235;28;20093;-73
2021/12/30 05:46:05;;;;;;;11.80;9.10;;;;;;;-0.54;94.84;100680.03;5086219;28;20085;-72
2021/12/30 05:51:52;;;;;;;10.90;8.48;;;;;;;-0.33;94.75;100703.38;5089552;28;20498;-72
2021/12/30 05:57:42;;;;;;;12.80;8.90;;;;;;;-0.45;94.91;100726.84;5090120;28;20078;-71
2021/12/30 06:00:11;;;;;;;14.13;9.70;;;;;;;-0.51;95.11;100734.28;5090047;28;20103;-72
2021/12/30 06:05:05;;;;;;;14.13;9.18;;;;;;;-0.57;95.13;100733.97;5065655;27;21013;-72
2021/12/30 06:07:31;;;;;;;14.15;10.32;;;;;;;-0.48;95.18;100721.53;5029669;28;20048;-73
2021/12/30 06:09:57;;;;;;;13.52;10.32;;;;;;;-0.57;95.27;100748.56;5029717;28;20030;-72
2021/12/30 06:12:22;;;;;;;13.52;10.55;;;;;;;-0.38;95.20;100753.81;5030382;28;20065;-72
2021/12/30 06:18:09;;;;;;;18.77;14.52;;;;;;;-0.44;95.28;100787.91;5030543;28;20080;-72
2021/12/30 06:23:57;;;;;;;14.38;11.13;;;;;;;-0.70;95.32;100765.09;5030803;28;20037;-73
2021/12/30 06:29:44;;;;;;;15.95;12.82;;;;;;;-0.36;94.77;100790.00;5031498;28;20152;-73
2021/12/30 06:35:34;;;;;;;18.85;13.75;;;;;;;-0.49;94.82;100811.69;5029757;28;20052;-74
2021/12/30 06:41:21;;;;;;;23.98;13.93;;;;;;;-0.28;94.44;100817.94;5030691;28;20087;-73
2021/12/30 06:43:49;;;;;;;20.70;13.75;;;;;;;-0.34;94.54;100837.34;5027104;28;20029;-74
2021/12/30 06:46:19;;;;;;;20.02;14.95;;;;;;;-0.58;94.69;100812.09;5030298;28;20034;-73
2021/12/30 06:50:56;;;;;;;16.50;13.57;;;;;;;-0.44;94.54;100823.13;5049668;28;20622;-73
2021/12/30 06:53:23;;;;;;;17.98;13.75;;;;;;;-0.43;94.34;100832.63;5029893;28;20044;-75
2021/12/30 06:55:50;;;;;;;19.13;13.23;;;;;;;-0.42;94.47;100847.28;5030340;28;20025;-75
2021/12/30 06:58:18;;;;;;;20.80;14.82;;;;;;;-0.49;94.58;100843.50;5030892;28;20114;-73
2021/12/30 07:01:38;;;;;;;21.00;14.73;;;;;;;-0.45;94.57;100863.44;5030907;28;20037;-74
2021/12/30 07:07:25;;;;;;;20.27;14.27;;;;;;;-0.26;94.21;100869.56;5028576;28;20052;-73
2021/12/30 07:09:51;;;;;;;23.15;17.02;;;;;;;-0.43;94.33;100850.66;5029995;28;20041;-74
2021/12/30 07:12:17;;;;;;;22.48;16.63;;;;;;;-0.35;94.56;100859.69;5031473;28;20452;-73
2021/12/30 07:14:45;;;;;;;23.23;16.92;;;;;;;-0.52;94.48;100847.59;5030359;28;20025;-73
2021/12/30 07:17:11;;;;;;;26.42;17.05;;;;;;;-0.33;94.29;100876.13;5029763;28;20042;-73
2021/12/30 07:23:02;;;;;;;23.90;15.52;;;;;;;-0.19;94.25;100879.38;5065604;28;20606;-73
2021/12/30 07:28:49;;;;;;;22.35;16.30;;;;;;;-0.34;94.01;100897.53;5050950;28;20048;-73
2021/12/30 07:31:15;;;;;;;21.65;16.13;;;;;;;-0.34;94.23;100894.06;5052381;28;20372;-73
2021/12/30 07:33:40;;;;;;;23.23;17.17;;;;;;;-0.53;94.13;100877.66;5052135;28;20533;-73
2021/12/30 07:36:06;;;;;;;19.92;16.83;;;;;;;-0.16;94.08;100919.94;5047364;28;20451;-73
2021/12/30 07:41:53;;;;;;;22.17;15.23;;;;;;;-0.43;93.77;100910.81;5050793;28;20036;-72
2021/12/30 07:44:18;;;;;;;21.33;15.68;;;;;;;-0.29;93.80;100921.84;5050452;28;20033;-72
2021/12/30 07:46:44;;;;;;;23.92;16.42;;;;;;;-0.27;94.02;100930.56;5038027;28;20026;-75
2021/12/30 07:49:10;;;;;;;25.17;16.42;;;;;;;-0.48;94.42;100930.31;5036067;28;20469;-73
2021/12/30 07:54:57;;;;;;;25.20;14.95;;;;;;;-0.52;94.49;100928.38;5050716;28;20175;-74
2021/12/30 08:00:44;;;;;;;24.30;17.77;;;;;;;-0.41;94.62;100939.28;5030946;28;20137;-75
2021/12/30 08:06:33;;;;;;;22.45;17.40;;;;;;;-0.35;94.24;100943.84;5037834;28;20110;-74
2021/12/30 08:08:58;;;;;;;25.60;16.95;;;;;;;-0.46;94.08;100967.38;5035833;28;20042;-73
2021/12/30 08:11:24;;;;;;;28.63;16.77;;;;;;;-0.13;94.32;100989.72;5050277;28;20044;-73
2021/12/30 08:13:50;;;;;;;20.95;15.93;;;;;;;-0.73;94.31;100947.84;5048445;28;20029;-73
2021/12/30 08:16:15;;;;;;;28.42;16.35;;;;;;;-0.47;94.57;100972.44;5050235;28;20029;-72
2021/12/30 08:18:41;;;;;;;20.15;15.90;;;;;;;-0.49;94.68;100972.38;5048535;28;20040;-71
2021/12/30 08:27:50;;;;;;;22.30;16.92;;;;;;;-0.48;94.86;100974.16;5038101;28;20417;-72
2021/12/30 08:30:19;;;;;;;21.60;14.80;;;;;;;-0.29;94.82;100970.84;5026614;28;20042;-75
2021/12/30 08:32:45;;;;;;;32.83;18.17;;;;;;;-0.30;94.91;100987.13;5026269;28;20121;-74
2021/12/30 08:35:14;;;;;;;23.67;16.67;;;;;;;-0.16;94.53;101005.03;5015463;28;20034;-74
2021/12/30 08:37:40;;;;;;;26.08;16.67;;;;;;;-0.44;94.67;100980.38;5016306;28;21586;-73
2021/12/30 08:40:08;;;;;;;29.48;16.80;;;;;;;-0.27;94.53;101000.19;5037176;28;20380;-77
2021/12/30 08:42:35;;;;;;;26.15;19.70;;;;;;;-0.43;94.88;100980.44;5035778;28;20485;-71
2021/12/30 08:48:30;;;;;;;21.48;16.38;;;;;;;-0.36;94.95;101001.38;5034194;28;20154;-70
2021/12/30 08:51:36;;;;;;;23.65;16.55;;;;;;;-0.19;95.05;101033.22;5034669;28;20045;-70
2021/12/30 08:57:24;;;;;;;23.67;16.65;;;;;;;-0.38;95.01;101027.06;5024673;28;20535;-71
2021/12/30 09:03:43;;;;;;;24.73;19.88;;;;;;;-0.15;95.02;101017.13;5031402;28;20045;-70
2021/12/30 09:12:53;;;;;;;28.25;23.42;;;;;;;-0.36;94.96;101048.69;5015891;28;20048;-70
2021/12/30 09:15:23;;;;;;;25.17;17.40;;;;;;;-0.27;95.09;101032.81;5014853;28;20116;-71
2021/12/30 09:17:50;;;;;;;32.17;25.35;;;;;;;-0.11;94.94;101042.28;5014003;28;20068;-71
2021/12/30 09:24:12;;;;;;;24.80;17.95;;;;;;;-0.28;94.85;101037.09;5031357;28;20044;-69
2021/12/30 09:29:59;;;;;;;23.15;17.75;;;;;;;-0.25;94.79;101042.41;5018612;28;20062;-70
2021/12/30 09:35:03;;;;;;;24.98;17.25;;;;;;;-0.03;94.55;101043.53;5064436;27;20606;-72
2021/12/30 09:38:21;;;;;;;22.40;17.17;;;;;;;-0.16;94.46;101033.41;5028364;28;20445;-71
2021/12/30 09:44:27;;;;;;;24.33;18.17;;;;;;;0.07;94.27;101069.03;5026710;28;20104;-72
2021/12/30 09:47:27;;;;;;;27.35;20.02;;;;;;;-0.13;93.96;101049.03;5027270;28;20105;-64
2021/12/30 09:53:18;;;;;;;20.88;17.23;;;;;;;-0.22;93.97;101052.88;5031526;28;20104;-71
2021/12/30 09:57:03;;;;;;;25.75;19.83;;;;;;;0.23;93.81;101070.72;5032510;28;20611;-71
2021/12/30 09:59:31;;;;;;;23.13;17.38;;;;;;;-0.06;93.33;101035.66;5049157;28;20036;-72
2021/12/30 10:05:35;;;;;;;21.90;15.88;;;;;;;-0.27;93.38;101053.44;5033628;28;20056;-70
2021/12/30 10:12:52;;;;;;;31.05;18.98;;;;;;;-0.23;93.68;101038.22;5048503;28;20043;-70
2021/12/30 10:19:25;;;;;;;30.55;19.98;;;;;;;-0.16;94.01;101061.78;5005895;28;20105;-70
2021/12/30 10:25:43;;;;;;;30.92;20.90;;;;;;;0.06;93.51;101054.34;5010142;28;20122;-69
2021/12/30 10:28:32;;;;;;;29.60;22.70;;;;;;;0.19;93.32;101045.56;5001216;28;20081;-70
2021/12/30 10:33:15;;;;;;;30.92;21.30;;;;;;;0.16;93.18;101061.78;5056611;28;21149;-71
2021/12/30 10:35:41;;;;;;;36.90;25.48;;;;;;;0.23;92.79;101046.59;5048391;28;20052;-70
2021/12/30 10:52:24;;;;;;;30.20;22.85;;;;;;;0.51;92.53;101057.53;5030437;28;20052;-70
2021/12/30 10:54:50;;;;;;;33.00;23.33;;;;;;;0.19;91.97;101043.88;5047752;28;20030;-70
2021/12/30 10:57:16;;;;;;;34.17;22.90;;;;;;;0.33;92.06;101060.06;5040202;28;20107;-72
2021/12/30 10:59:44;;;;;;;29.02;20.02;;;;;;;0.23;92.18;101064.66;5027603;28;20038;-72
2021/12/30 11:02:58;;;;;;;36.70;23.88;;;;;;;0.00;92.56;101043.72;5040541;28;20045;-70
2021/12/30 11:07:05;;;;;;;34.20;23.00;;;;;;;0.30;92.72;101075.38;5029342;27;20628;-73
2021/12/30 11:13:30;;;;;;;28.60;22.20;;;;;;;0.44;92.09;101052.84;5032086;28;20068;-69
2021/12/30 11:16:03;;;;;;;34.35;24.40;;;;;;;0.54;91.02;100987.06;5028705;28;20045;-70
2021/12/30 11:18:39;;;;;;;;;;;;;;;1.09;90.13;101063.81;5030041;28;20038;-69
2021/12/30 11:21:05;;;;;;;30.40;22.10;;;;;;;0.62;89.86;101077.03;5026085;28;19959;-71
2021/12/30 11:24:18;;;;;;;33.13;22.30;;;;;;;0.38;90.67;101061.19;5030626;28;20481;-71
2021/12/30 11:26:44;;;;;;;30.92;23.65;;;;;;;0.24;91.15;101066.47;5022929;28;20045;-70
2021/12/30 11:29:10;;;;;;;36.58;23.83;;;;;;;0.45;91.61;101052.06;5011728;28;20030;-70
2021/12/30 11:31:36;;;;;;;40.05;28.73;;;;;;;0.86;91.28;101073.91;5012756;28;20048;-70
2021/12/30 11:34:03;;;;;;;39.13;25.45;;;;;;;1.06;90.83;101056.81;5012220;28;20370;-71
2021/12/30 11:36:33;;;;;;;35.75;26.05;;;;;;;0.58;90.80;101058.72;5030211;28;20038;-71
2021/12/30 11:39:03;;;;;;;35.40;24.00;;;;;;;1.36;90.34;101095.28;5027205;28;20042;-70
2021/12/30 11:41:32;;;;;;;35.72;25.08;;;;;;;0.74;90.55;101075.88;5015214;28;20103;-71
2021/12/30 11:43:58;;;;;;;36.13;27.23;;;;;;;1.00;90.62;101097.84;5026541;28;20381;-70
2021/12/30 11:53:12;;;;;;;42.42;29.83;;;;;;;1.57;88.70;101069.56;5023699;28;20076;-70
2021/12/30 11:59:02;;;;;;;41.25;27.23;;;;;;;1.12;88.88;101092.41;5029499;28;20057;-71
2021/12/30 12:01:42;;;;;;;45.58;30.55;;;;;;;1.59;88.55;101119.66;5017019;28;20056;-71
2021/12/30 12:08:03;;;;;;;47.55;34.75;;;;;;;1.36;89.77;101103.03;5017281;28;20134;-74
2021/12/30 12:10:29;;;;;;;52.88;35.70;;;;;;;1.08;89.60;101103.38;5027732;28;20052;-71
2021/12/30 12:16:44;;;;;;;28.70;20.58;;;;;;;15.12;53.63;101120.41;5028737;28;20057;-66
2021/12/30 12:19:11;;;;;;;36.47;25.60;;;;;;;11.38;57.95;101112.28;5016216;28;20474;-66
2021/12/30 12:29:06;;;;;;;37.75;26.42;;;;;;;15.51;44.93;101105.13;5016596;28;20065;-65
2021/12/30 12:31:52;;;;;;;44.67;29.13;;;;;;;9.81;54.12;101109.66;5013213;28;20145;-70
2021/12/30 12:34:32;;;;;;;30.30;24.00;;;;;;;9.14;56.67;101130.41;5013512;28;20045;-65
2021/12/30 12:36:58;;;;;;;38.50;29.23;;;;;;;5.79;65.62;101119.66;5015303;28;20129;-65
2021/12/30 12:39:37;;;;;;;29.20;22.50;;;;;;;13.12;50.79;101117.47;5014139;28;20069;-66
2021/12/30 12:59:15;;;;;;;46.22;32.65;;;;;;;3.29;78.04;101140.16;5038257;28;20038;-68
2021/12/30 13:01:44;;;;;;;50.95;35.92;;;;;;;3.24;78.78;101141.69;5017865;28;20037;-68
2021/12/30 13:04:11;;;;;;;59.35;36.67;;;;;;;2.83;79.55;101130.44;5013781;28;20052;-67
2021/12/30 13:06:41;;;;;;;64.40;35.20;;;;;;;2.77;80.83;101143.16;5022203;28;20041;-67
2021/12/30 13:12:18;;;;;;;54.33;33.22;;;;;;;1.74;83.43;101142.78;5002813;28;20065;-68
2021/12/30 13:17:44;;;;;;;52.80;36.90;;;;;;;1.87;86.41;101187.44;5112694;27;20122;-69
2021/12/30 13:20:13;;;;;;;46.08;33.83;;;;;;;2.01;86.50;101184.59;5088506;28;20505;-69
2021/12/30 13:22:40;;;;;;;56.80;37.67;;;;;;;1.88;85.92;101178.84;5090689;28;20034;-68
2021/12/30 13:28:27;;;;;;;59.40;37.75;;;;;;;1.65;87.63;101188.09;5090449;28;20089;-69
2021/12/30 13:30:52;;;;;;;52.30;33.53;;;;;;;1.84;87.25;101188.97;5083129;28;20485;-69
2021/12/30 13:33:18;;;;;;;56.47;40.30;;;;;;;2.01;87.18;101190.66;5084368;28;20040;-64
2021/12/30 13:35:44;;;;;;;52.38;36.75;;;;;;;2.21;86.61;101188.13;5089175;28;20033;-70
2021/12/30 13:38:10;;;;;;;57.35;34.15;;;;;;;2.02;86.28;101179.50;5079193;28;20040;-70
2021/12/30 13:40:42;;;;;;;55.97;34.42;;;;;;;2.21;86.28;101191.59;5070162;28;20033;-70
2021/12/30 13:43:39;;;;;;;49.20;32.58;;;;;;;1.92;86.59;101181.56;5069867;28;20086;-71
2021/12/30 13:46:05;;;;;;;54.15;34.47;;;;;;;1.95;86.84;101171.38;5068958;28;20059;-71
2021/12/30 13:48:39;;;;;;;48.83;32.95;;;;;;;2.15;86.72;101191.28;5067499;28;20041;-70
2021/12/30 13:51:28;;;;;;;48.45;32.15;;;;;;;2.23;86.37;101195.16;5079811;28;20048;-70
2021/12/30 13:53:55;;;;;;;49.15;30.75;;;;;;;2.03;86.85;101193.31;5081912;28;20476;-71
2021/12/30 13:56:23;;;;;;;43.70;31.05;;;;;;;2.00;86.95;101194.06;5086489;28;20029;-71
2021/12/30 13:58:59;;;;;;;48.60;31.65;;;;;;;1.90;87.10;101195.34;5086040;28;20115;-65
2021/12/30 14:01:28;;;;;;;52.70;33.08;;;;;;;2.21;87.21;101201.06;5080648;28;20012;-66
2021/12/30 14:04:03;;;;;;;48.08;34.10;;;;;;;2.25;86.49;101196.09;5086827;28;20086;-64
2021/12/30 14:06:29;;;;;;;50.25;34.80;;;;;;;2.42;86.54;101176.16;5086439;28;20072;-66
2021/12/30 14:09:09;;;;;;;51.75;33.47;;;;;;;2.37;85.99;101184.53;5086083;28;20075;-64
2021/12/30 14:18:19;;;;;;;46.13;32.38;;;;;;;2.34;86.50;101203.38;5048523;28;20048;-70
2021/12/30 14:22:34;;;;;;;53.85;35.20;;;;;;;2.62;86.09;101213.34;5085634;27;21135;-71
2021/12/30 14:28:24;;;;;;;44.70;33.13;;;;;;;2.54;85.99;101215.56;5036554;28;20489;-74
2021/12/30 14:30:53;;;;;;;43.63;31.67;;;;;;;2.32;86.09;101171.38;5029799;28;20075;-72
2021/12/30 14:33:28;;;;;;;53.15;34.40;;;;;;;2.42;85.81;101167.50;5031585;28;20136;-71
2021/12/30 14:39:32;;;;;;;45.22;34.45;;;;;;;2.30;87.35;101181.66;5027291;28;20095;-71
2021/12/30 14:42:10;;;;;;;47.33;36.67;;;;;;;2.29;87.27;101173.81;5030839;28;20041;-70
2021/12/30 14:45:31;;;;;;;47.92;35.22;;;;;;;2.18;87.31;101160.41;5028226;28;20517;-71
2021/12/30 14:51:19;;;;;;;53.42;36.97;;;;;;;2.23;87.77;101160.59;5011949;28;20049;-71
2021/12/30 14:53:46;;;;;;;41.78;33.22;;;;;;;2.19;87.61;101154.38;5009958;28;20038;-70
2021/12/30 14:56:12;;;;;;;52.05;33.50;;;;;;;2.26;87.44;101165.91;5042718;28;20035;-70
2021/12/30 14:59:15;;;;;;;47.22;32.17;;;;;;;2.37;87.41;101156.94;5010663;28;20018;-70
2021/12/30 15:05:03;;;;;;;42.03;31.23;;;;;;;1.91;88.19;101144.47;5011606;28;20480;-71
2021/12/30 15:07:29;;;;;;;41.92;27.55;;;;;;;2.27;87.58;101180.63;5009891;28;20030;-70
2021/12/30 15:09:59;;;;;;;54.42;31.88;;;;;;;2.36;87.52;101203.47;5026095;28;20472;-70
2021/12/30 15:12:25;;;;;;;53.72;31.40;;;;;;;2.35;87.43;101188.75;5030903;28;20087;-70
2021/12/30 15:15:17;;;;;;;41.75;29.38;;;;;;;2.40;86.85;101175.19;5029522;28;20427;-70
2021/12/30 15:21:15;;;;;;;47.30;31.45;;;;;;;2.49;86.63;101201.50;5019591;28;20522;-70
2021/12/30 15:23:48;;;;;;;46.75;33.83;;;;;;;2.48;86.59;101233.44;5039800;28;20049;-70
2021/12/30 15:26:16;;;;;;;52.67;31.40;;;;;;;2.30;86.95;101222.22;5027085;28;20048;-71
2021/12/30 15:28:44;;;;;;;45.83;29.50;;;;;;;2.41;87.15;101228.78;5031336;28;20493;-70
2021/12/30 15:31:10;;;;;;;52.05;34.38;;;;;;;2.28;87.36;101205.72;5028884;28;20040;-70
2021/12/30 15:40:59;;;;;;;47.20;30.52;;;;;;;2.06;87.69;101198.63;5016214;28;20100;-71
2021/12/30 15:43:26;;;;;;;46.45;28.40;;;;;;;2.37;87.16;101216.50;5016158;28;20053;-71
2021/12/30 15:45:53;;;;;;;39.97;26.73;;;;;;;2.37;86.68;101205.25;5016881;28;20049;-71
2021/12/30 15:48:20;;;;;;;45.08;31.27;;;;;;;2.38;86.44;101214.78;5014408;28;20037;-71
2021/12/30 15:54:32;;;;;;;45.03;24.58;;;;;;;2.09;86.75;101232.44;5014182;28;20068;-71
2021/12/30 15:56:58;;;;;;;41.25;24.23;;;;;;;2.31;86.93;101263.69;5005084;28;20042;-71
2021/12/30 15:59:26;;;;;;;40.63;25.27;;;;;;;2.30;86.49;101235.16;5014235;28;20056;-70
2021/12/30 16:01:52;;;;;;;35.38;23.98;;;;;;;2.41;86.31;101256.34;5013521;28;20071;-65
2021/12/30 16:04:19;;;;;;;44.60;25.85;;;;;;;2.48;85.74;101243.78;5009740;28;20029;-71
2021/12/30 16:06:46;;;;;;;40.47;24.30;;;;;;;2.53;85.42;101275.09;5013386;28;20489;-70
2021/12/30 16:09:14;;;;;;;36.42;25.35;;;;;;;2.22;85.94;101268.44;5009920;28;20050;-70
2021/12/30 16:11:42;;;;;;;48.10;25.33;;;;;;;2.42;86.83;101289.22;5005607;28;20045;-71
2021/12/30 16:14:09;;;;;;;40.65;26.65;;;;;;;2.35;86.86;101301.00;5013146;28;20045;-71
2021/12/30 16:16:35;;;;;;;35.35;25.70;;;;;;;2.20;87.02;101290.81;5016361;28;20030;-70
2021/12/30 16:19:06;;;;;;;38.08;27.35;;;;;;;2.19;86.91;101282.97;5012269;28;20053;-70
2021/12/30 16:21:33;;;;;;;47.25;31.17;;;;;;;2.22;87.07;101277.91;5003624;28;20046;-72
2021/12/30 16:24:00;;;;;;;48.38;35.05;;;;;;;2.52;86.83;101320.81;5010669;28;20044;-71
2021/12/30 16:29:48;;;;;;;35.30;25.73;;;;;;;2.50;86.17;101300.81;5014231;28;20040;-70
2021/12/30 16:32:13;;;;;;;35.63;24.02;;;;;;;2.48;85.88;101294.69;5013869;28;20034;-70
2021/12/30 16:34:39;;;;;;;36.67;24.00;;;;;;;2.36;85.77;101283.75;5013975;28;20037;-70
2021/12/30 16:37:05;;;;;;;31.02;22.83;;;;;;;2.40;86.03;101324.53;5012647;28;20125;-70
2021/12/30 16:39:34;;;;;;;29.10;21.38;;;;;;;2.54;85.93;101314.00;4996094;28;20045;-70